Time;durP1;ratioP1;P1;durP2;ratioP2;P2;SDS_P1;SDS_P2;PMS_P1;PMS_P2;Temp;Humidity;BMP_temperature;BMP_pressure;BME280_temperature;BME280_humidity;BME280_pressure;Samples;Min_cycle;Max_cycle;Signal;HPM_P1;HPM_P2
2022/01/01 00:01:52;;;;;;;17.38;8.73;;;;;;;;;;4989434;28;20315;-74
2022/01/01 00:04:18;;;;;;;14.95;8.05;;;;;;;;;;4989149;28;20321;-74
2022/01/01 00:06:43;;;;;;;23.58;9.20;;;;;;;;;;4990144;28;20454;-73
2022/01/01 00:09:09;;;;;;;19.15;8.85;;;;;;;;;;4989718;28;20489;-74
2022/01/01 00:11:34;;;;;;;20.88;8.23;;;;;;;;;;4989502;28;20454;-73
2022/01/01 00:13:59;;;;;;;16.20;8.48;;;;;;;;;;4988928;28;20373;-74
2022/01/01 00:16:25;;;;;;;17.63;8.13;;;;;;;;;;4987751;28;20320;-75
2022/01/01 00:18:50;;;;;;;16.00;8.65;;;;;;;;;;4989495;28;20411;-73
2022/01/01 00:21:16;;;;;;;16.75;7.43;;;;;;;;;;4988965;28;20043;-73
2022/01/01 00:23:41;;;;;;;17.48;7.70;;;;;;;;;;4989305;28;20037;-74
2022/01/01 00:26:07;;;;;;;16.95;8.55;;;;;;;;;;4988771;28;20051;-73
2022/01/01 00:28:32;;;;;;;16.42;8.30;;;;;;;;;;4989683;28;20372;-74
2022/01/01 00:30:57;;;;;;;18.65;7.88;;;;;;;;;;4989076;28;20366;-73
2022/01/01 00:33:23;;;;;;;14.57;7.90;;;;;;;;;;4989307;28;20432;-74
2022/01/01 00:35:48;;;;;;;13.25;7.75;;;;;;;;;;4987391;28;20325;-74
2022/01/01 00:38:13;;;;;;;12.02;7.15;;;;;;;;;;4992141;28;20495;-73
2022/01/01 00:40:39;;;;;;;16.75;7.88;;;;;;;;;;4992735;28;20592;-74
2022/01/01 00:43:04;;;;;;;14.93;7.63;;;;;;;;;;4992960;28;20320;-73
2022/01/01 00:45:30;;;;;;;16.90;8.60;;;;;;;;;;4992868;28;20467;-74
2022/01/01 00:47:55;;;;;;;14.15;7.18;;;;;;;;;;4992537;28;20412;-74
2022/01/01 00:50:21;;;;;;;13.30;7.00;;;;;;;;;;4992754;28;20361;-73
2022/01/01 00:52:47;;;;;;;15.32;7.13;;;;;;;;;;4992040;28;20514;-73
2022/01/01 00:55:13;;;;;;;16.98;7.22;;;;;;;;;;4992235;28;20477;-74
2022/01/01 00:57:38;;;;;;;13.63;7.45;;;;;;;;;;4992413;28;20421;-73
2022/01/01 01:00:05;;;;;;;14.70;6.93;;;;;;;;;;4990118;28;20081;-74
2022/01/01 01:02:31;;;;;;;15.57;7.32;;;;;;;;;;4965620;28;20529;-73
2022/01/01 01:04:57;;;;;;;15.35;7.07;;;;;;;;;;4970688;28;20447;-74
2022/01/01 01:07:22;;;;;;;14.13;6.75;;;;;;;;;;4971852;28;20428;-74
2022/01/01 01:09:48;;;;;;;16.48;7.60;;;;;;;;;;4972169;28;20436;-74
2022/01/01 01:12:19;;;;;;;15.25;7.05;;;;;;;;;;4972681;28;20563;-74
2022/01/01 01:14:45;;;;;;;13.60;6.68;;;;;;;;;;4972139;28;20499;-74
2022/01/01 01:17:10;;;;;;;10.45;5.85;;;;;;;;;;4972455;28;20407;-74
2022/01/01 01:19:36;;;;;;;14.73;6.55;;;;;;;;;;4972059;28;20420;-73
2022/01/01 01:22:01;;;;;;;14.18;6.60;;;;;;;;;;4955035;28;20511;-73
2022/01/01 01:24:27;;;;;;;10.48;6.43;;;;;;;;;;4972357;28;20528;-74
2022/01/01 01:26:53;;;;;;;11.27;6.45;;;;;;;;;;4971980;28;20404;-73
2022/01/01 01:29:19;;;;;;;14.55;6.63;;;;;;;;;;4972532;28;20413;-73
2022/01/01 01:31:46;;;;;;;15.57;6.50;;;;;;;;;;4970175;28;20381;-74
2022/01/01 01:34:11;;;;;;;12.27;6.05;;;;;;;;;;4970532;28;20499;-74
2022/01/01 01:36:36;;;;;;;15.73;6.68;;;;;;;;;;4971941;28;20530;-74
2022/01/01 01:39:02;;;;;;;12.05;6.65;;;;;;;;;;4971560;28;20099;-73
2022/01/01 01:41:30;;;;;;;12.10;6.57;;;;;;;;;;4971788;28;20029;-74
2022/01/01 01:43:57;;;;;;;13.40;6.88;;;;;;;;;;4971936;28;20021;-73
2022/01/01 01:46:23;;;;;;;11.60;6.82;;;;;;;;;;4973937;28;20025;-74
2022/01/01 01:48:48;;;;;;;11.52;5.75;;;;;;;;;;4972465;28;20066;-73
2022/01/01 01:51:14;;;;;;;11.32;6.03;;;;;;;;;;4991320;28;20398;-74
2022/01/01 01:53:39;;;;;;;10.52;5.35;;;;;;;;;;4991888;28;20179;-74
2022/01/01 01:56:04;;;;;;;10.82;5.90;;;;;;;;;;4973380;28;20448;-73
2022/01/01 01:58:30;;;;;;;13.93;5.57;;;;;;;;;;4991075;28;20441;-73
2022/01/01 02:01:20;;;;;;;12.27;5.60;;;;;;;;;;4991506;28;20025;-73
2022/01/01 02:03:46;;;;;;;11.88;5.68;;;;;;;;;;4991981;28;20412;-74
2022/01/01 02:06:12;;;;;;;12.18;5.35;;;;;;;;;;4993131;28;20569;-73
2022/01/01 02:08:37;;;;;;;10.05;5.28;;;;;;;;;;4973087;28;20391;-73
2022/01/01 02:11:03;;;;;;;10.85;5.30;;;;;;;;;;4972982;28;20444;-74
2022/01/01 02:13:33;;;;;;;10.32;5.10;;;;;;;;;;4973919;28;20450;-73
2022/01/01 02:16:28;;;;;;;11.82;4.35;;;;;;;;;;4990577;28;20021;-73
2022/01/01 02:18:54;;;;;;;12.32;5.90;;;;;;;;;;4991538;28;20343;-73
2022/01/01 02:21:21;;;;;;;7.70;4.38;;;;;;;;;;4973061;28;20420;-73
2022/01/01 02:23:47;;;;;;;8.30;4.63;;;;;;;;;;4972885;28;20297;-74
2022/01/01 02:26:15;;;;;;;10.00;5.38;;;;;;;;;;4991136;28;20394;-73
2022/01/01 02:28:42;;;;;;;10.25;5.30;;;;;;;;;;4972823;28;20332;-74
2022/01/01 02:31:08;;;;;;;10.98;4.75;;;;;;;;;;4992102;28;20339;-74
2022/01/01 02:33:34;;;;;;;10.23;5.05;;;;;;;;;;4991450;28;20407;-74
2022/01/01 02:36:00;;;;;;;9.88;4.70;;;;;;;;;;4990317;28;20464;-74
2022/01/01 02:38:26;;;;;;;9.60;4.82;;;;;;;;;;4972706;28;20491;-73
2022/01/01 02:40:51;;;;;;;9.07;4.72;;;;;;;;;;4990580;28;20416;-73
2022/01/01 02:43:17;;;;;;;8.10;4.75;;;;;;;;;;4991812;28;20460;-74
2022/01/01 02:45:43;;;;;;;11.18;4.72;;;;;;;;;;4990485;28;20490;-74
2022/01/01 02:48:08;;;;;;;10.50;4.88;;;;;;;;;;4991148;28;20408;-74
2022/01/01 02:50:34;;;;;;;10.73;5.00;;;;;;;;;;4990081;28;20513;-73
2022/01/01 02:52:59;;;;;;;8.90;4.35;;;;;;;;;;4971673;28;20388;-74
2022/01/01 02:55:24;;;;;;;10.82;4.82;;;;;;;;;;4991822;28;20029;-73
2022/01/01 02:57:50;;;;;;;9.02;4.53;;;;;;;;;;4971866;28;20102;-74
2022/01/01 03:00:15;;;;;;;8.43;4.65;;;;;;;;;;4990224;28;20507;-73
2022/01/01 03:02:41;;;;;;;6.72;4.28;;;;;;;;;;4989553;28;20507;-74
2022/01/01 03:05:07;;;;;;;10.60;4.40;;;;;;;;;;4989865;28;20485;-73
2022/01/01 03:07:35;;;;;;;9.73;4.03;;;;;;;;;;4972010;28;20386;-73
2022/01/01 03:10:00;;;;;;;9.13;4.50;;;;;;;;;;4989781;28;20424;-75
2022/01/01 03:12:25;;;;;;;9.20;4.75;;;;;;;;;;4972211;28;20428;-73
2022/01/01 03:14:51;;;;;;;8.27;4.03;;;;;;;;;;4989985;28;20467;-74
2022/01/01 03:17:16;;;;;;;7.53;3.38;;;;;;;;;;4990566;28;20331;-73
2022/01/01 03:19:41;;;;;;;7.80;4.00;;;;;;;;;;4971921;28;20359;-74
2022/01/01 03:22:06;;;;;;;8.05;4.05;;;;;;;;;;4990370;28;20328;-74
2022/01/01 03:24:32;;;;;;;10.45;4.28;;;;;;;;;;4989808;28;20340;-74
2022/01/01 03:26:57;;;;;;;8.82;3.83;;;;;;;;;;4989624;28;20340;-74
2022/01/01 03:29:23;;;;;;;8.43;4.13;;;;;;;;;;4971443;28;20428;-73
2022/01/01 03:31:49;;;;;;;8.27;3.45;;;;;;;;;;4989185;28;20306;-74
2022/01/01 03:34:14;;;;;;;5.63;3.38;;;;;;;;;;4989627;28;20442;-74
2022/01/01 03:36:40;;;;;;;7.07;3.80;;;;;;;;;;4989098;28;20435;-74
2022/01/01 03:39:06;;;;;;;5.75;2.95;;;;;;;;;;4989874;28;20352;-74
2022/01/01 03:41:31;;;;;;;5.18;2.90;;;;;;;;;;4989207;28;20371;-74
2022/01/01 03:43:57;;;;;;;6.78;3.33;;;;;;;;;;4990323;28;20025;-74
2022/01/01 03:46:22;;;;;;;9.50;3.75;;;;;;;;;;4971314;28;20085;-74
2022/01/01 03:48:48;;;;;;;6.55;3.63;;;;;;;;;;4971590;28;20111;-74
2022/01/01 03:51:13;;;;;;;6.75;3.55;;;;;;;;;;4970840;28;20343;-74
2022/01/01 03:53:39;;;;;;;6.97;3.28;;;;;;;;;;4988985;28;20332;-74
2022/01/01 03:56:04;;;;;;;5.65;3.08;;;;;;;;;;4988746;28;20533;-74
2022/01/01 03:58:29;;;;;;;6.65;3.30;;;;;;;;;;4989527;28;20471;-74
2022/01/01 04:00:55;;;;;;;5.50;3.08;;;;;;;;;;4989721;28;20475;-74
2022/01/01 04:03:21;;;;;;;4.68;3.03;;;;;;;;;;4988926;28;20558;-74
2022/01/01 04:05:46;;;;;;;6.45;3.47;;;;;;;;;;4989108;28;20360;-75
2022/01/01 04:08:12;;;;;;;7.70;3.50;;;;;;;;;;4989201;28;20436;-74
2022/01/01 04:10:38;;;;;;;6.20;3.25;;;;;;;;;;4990750;28;20423;-74
2022/01/01 04:13:06;;;;;;;5.50;2.97;;;;;;;;;;4988905;28;20537;-74
2022/01/01 04:15:32;;;;;;;5.30;2.90;;;;;;;;;;4970918;28;20493;-74
2022/01/01 04:18:06;;;;;;;5.30;2.97;;;;;;;;;;4971615;28;20378;-73
2022/01/01 04:20:31;;;;;;;4.75;3.05;;;;;;;;;;4989728;28;20029;-73
2022/01/01 04:22:57;;;;;;;5.10;3.13;;;;;;;;;;4990158;28;20048;-73
2022/01/01 04:25:23;;;;;;;4.78;2.95;;;;;;;;;;4989017;28;20475;-73
2022/01/01 04:27:50;;;;;;;5.38;2.75;;;;;;;;;;4990326;28;20459;-73
2022/01/01 04:30:15;;;;;;;6.15;2.92;;;;;;;;;;4988913;28;20344;-73
2022/01/01 04:32:41;;;;;;;5.82;3.03;;;;;;;;;;4988943;28;20339;-74
2022/01/01 04:35:07;;;;;;;5.30;3.03;;;;;;;;;;4988532;28;20051;-74
2022/01/01 04:37:33;;;;;;;5.05;2.58;;;;;;;;;;4970687;28;20068;-74
2022/01/01 04:39:59;;;;;;;5.13;2.63;;;;;;;;;;4989746;28;20495;-74
2022/01/01 04:42:27;;;;;;;4.53;2.45;;;;;;;;;;4988964;28;20498;-73
2022/01/01 04:44:53;;;;;;;5.13;2.40;;;;;;;;;;4971132;28;20361;-73
2022/01/01 04:47:18;;;;;;;5.25;3.00;;;;;;;;;;4988712;28;20370;-74
2022/01/01 04:49:43;;;;;;;4.47;2.47;;;;;;;;;;4988614;28;20459;-73
2022/01/01 04:52:09;;;;;;;5.35;3.22;;;;;;;;;;4988375;28;20107;-74
2022/01/01 04:54:38;;;;;;;4.20;2.38;;;;;;;;;;4989442;28;20100;-73
2022/01/01 04:57:04;;;;;;;4.38;2.55;;;;;;;;;;4988812;28;20437;-73
2022/01/01 04:59:29;;;;;;;4.78;2.92;;;;;;;;;;4988186;28;20357;-73
2022/01/01 05:01:54;;;;;;;4.22;2.28;;;;;;;;;;4988162;28;20474;-74
2022/01/01 05:04:20;;;;;;;3.55;2.40;;;;;;;;;;4988966;28;20371;-74
2022/01/01 05:06:49;;;;;;;4.30;2.55;;;;;;;;;;4988209;28;20356;-74
2022/01/01 05:09:15;;;;;;;4.57;2.70;;;;;;;;;;4988634;28;20222;-74
2022/01/01 05:11:40;;;;;;;5.05;2.90;;;;;;;;;;4988138;28;20463;-73
2022/01/01 05:14:05;;;;;;;4.38;2.65;;;;;;;;;;4989076;28;20416;-73
2022/01/01 05:16:31;;;;;;;4.07;2.15;;;;;;;;;;4988202;28;20451;-74
2022/01/01 05:18:56;;;;;;;4.57;2.30;;;;;;;;;;4989802;28;20033;-74
2022/01/01 05:21:21;;;;;;;5.53;2.88;;;;;;;;;;4988560;28;20317;-74
2022/01/01 05:23:47;;;;;;;6.32;2.60;;;;;;;;;;4971643;28;20056;-74
2022/01/01 05:26:12;;;;;;;3.92;2.45;;;;;;;;;;4991636;28;20376;-73
2022/01/01 05:28:38;;;;;;;4.18;2.35;;;;;;;;;;4991439;28;20420;-74
2022/01/01 05:31:04;;;;;;;4.15;2.45;;;;;;;;;;4991722;28;20452;-74
2022/01/01 05:33:29;;;;;;;3.38;2.45;;;;;;;;;;4973626;28;20029;-73
2022/01/01 05:35:55;;;;;;;3.45;2.30;;;;;;;;;;4991387;28;20056;-73
2022/01/01 05:38:20;;;;;;;4.78;2.20;;;;;;;;;;4991469;28;20418;-74
2022/01/01 05:40:45;;;;;;;4.18;2.05;;;;;;;;;;4991484;28;20519;-74
2022/01/01 05:43:13;;;;;;;5.75;2.20;;;;;;;;;;4991426;28;20033;-74
2022/01/01 05:45:42;;;;;;;3.60;2.13;;;;;;;;;;4992191;28;20342;-73
2022/01/01 05:48:08;;;;;;;3.20;2.10;;;;;;;;;;4992116;28;20489;-74
2022/01/01 05:50:33;;;;;;;4.15;2.10;;;;;;;;;;4992013;28;20412;-74
2022/01/01 05:52:58;;;;;;;3.80;2.05;;;;;;;;;;4990947;28;20436;-74
2022/01/01 05:55:24;;;;;;;3.10;1.90;;;;;;;;;;4992746;28;20519;-74
2022/01/01 05:57:49;;;;;;;2.90;2.20;;;;;;;;;;4990952;28;20403;-74
2022/01/01 06:00:15;;;;;;;3.47;1.95;;;;;;;;;;4991232;28;20431;-73
2022/01/01 06:02:41;;;;;;;3.28;2.30;;;;;;;;;;4991550;28;20440;-74
2022/01/01 06:05:06;;;;;;;3.45;2.10;;;;;;;;;;4991360;28;20029;-74
2022/01/01 06:07:32;;;;;;;2.58;1.60;;;;;;;;;;4973225;28;20505;-74
2022/01/01 06:09:57;;;;;;;3.58;1.90;;;;;;;;;;4991051;28;20320;-73
2022/01/01 06:12:22;;;;;;;3.22;1.70;;;;;;;;;;4990433;28;20464;-74
2022/01/01 06:14:48;;;;;;;3.97;1.95;;;;;;;;;;4990711;28;20505;-74
2022/01/01 06:17:13;;;;;;;3.78;1.75;;;;;;;;;;4990392;28;20440;-73
2022/01/01 06:19:38;;;;;;;3.28;1.70;;;;;;;;;;4991058;28;20028;-74
2022/01/01 06:22:04;;;;;;;3.70;1.83;;;;;;;;;;4972766;28;20450;-74
2022/01/01 06:24:29;;;;;;;3.85;2.10;;;;;;;;;;4992355;28;20363;-74
2022/01/01 06:26:54;;;;;;;2.63;1.60;;;;;;;;;;4990615;28;20080;-74
2022/01/01 06:29:19;;;;;;;2.72;1.77;;;;;;;;;;4972966;28;20360;-74
2022/01/01 06:31:45;;;;;;;3.25;1.67;;;;;;;;;;4990337;28;20507;-74
2022/01/01 06:34:10;;;;;;;2.47;1.73;;;;;;;;;;4991341;28;20399;-74
2022/01/01 06:36:36;;;;;;;2.55;1.60;;;;;;;;;;4990462;28;20365;-74
2022/01/01 06:39:01;;;;;;;2.22;1.33;;;;;;;;;;4990285;28;20368;-74
2022/01/01 06:41:26;;;;;;;4.13;1.63;;;;;;;;;;4990517;28;20421;-74
2022/01/01 06:43:52;;;;;;;2.75;1.83;;;;;;;;;;4973239;28;20379;-75
2022/01/01 06:46:17;;;;;;;2.70;1.88;;;;;;;;;;4990433;28;20448;-74
2022/01/01 06:48:43;;;;;;;5.63;1.80;;;;;;;;;;4990796;28;20545;-74
2022/01/01 06:51:08;;;;;;;3.33;1.88;;;;;;;;;;4991183;28;20566;-74
2022/01/01 06:53:34;;;;;;;3.17;2.05;;;;;;;;;;4989895;28;20403;-74
2022/01/01 06:56:05;;;;;;;2.47;1.65;;;;;;;;;;4990340;28;20382;-74
2022/01/01 06:58:30;;;;;;;2.47;1.55;;;;;;;;;;4989933;28;20467;-74
2022/01/01 07:00:56;;;;;;;3.15;1.77;;;;;;;;;;4990125;28;20474;-73
2022/01/01 07:03:22;;;;;;;2.58;1.52;;;;;;;;;;4989896;28;20511;-74
2022/01/01 07:05:48;;;;;;;2.60;1.60;;;;;;;;;;4972351;28;20383;-74
2022/01/01 07:08:13;;;;;;;2.47;1.70;;;;;;;;;;4991511;28;20021;-74
2022/01/01 07:10:41;;;;;;;2.63;1.65;;;;;;;;;;4990182;28;20029;-74
2022/01/01 07:13:07;;;;;;;2.10;1.50;;;;;;;;;;4971809;28;20424;-74
2022/01/01 07:15:32;;;;;;;3.13;1.77;;;;;;;;;;4990090;28;20427;-74
2022/01/01 07:17:57;;;;;;;3.08;1.67;;;;;;;;;;4989480;28;20444;-74
2022/01/01 07:20:23;;;;;;;1.45;1.25;;;;;;;;;;4990002;28;20401;-74
2022/01/01 07:22:48;;;;;;;3.17;1.95;;;;;;;;;;4990385;28;20493;-74
2022/01/01 07:25:15;;;;;;;3.03;1.65;;;;;;;;;;4972529;28;20336;-74
2022/01/01 07:27:41;;;;;;;3.05;1.70;;;;;;;;;;4989594;28;20401;-74
2022/01/01 07:30:07;;;;;;;2.00;1.33;;;;;;;;;;4971483;28;20424;-74
2022/01/01 07:32:38;;;;;;;2.05;1.50;;;;;;;;;;4989349;28;20515;-74
2022/01/01 07:35:03;;;;;;;3.03;1.70;;;;;;;;;;4971651;28;20017;-73
2022/01/01 07:37:29;;;;;;;3.20;1.60;;;;;;;;;;4989095;28;20408;-74
2022/01/01 07:39:54;;;;;;;4.32;1.58;;;;;;;;;;4990866;28;20399;-75
2022/01/01 07:42:19;;;;;;;2.25;1.60;;;;;;;;;;4989086;28;20425;-74
2022/01/01 07:44:44;;;;;;;4.05;1.48;;;;;;;;;;4990116;28;20329;-74
2022/01/01 07:47:10;;;;;;;2.80;1.77;;;;;;;;;;4989349;28;20520;-74
2022/01/01 07:49:35;;;;;;;2.55;1.40;;;;;;;;;;4989974;28;20428;-74
2022/01/01 07:52:01;;;;;;;3.10;1.50;;;;;;;;;;4971411;28;20507;-73
2022/01/01 07:54:26;;;;;;;2.50;1.70;;;;;;;;;;4989127;28;20466;-74
2022/01/01 07:56:51;;;;;;;3.03;1.63;;;;;;;;;;4970911;28;20328;-74
2022/01/01 07:59:17;;;;;;;2.10;1.42;;;;;;;;;;4971787;28;20469;-74
2022/01/01 08:01:43;;;;;;;3.28;1.88;;;;;;;;;;4988936;28;20440;-74
2022/01/01 08:04:09;;;;;;;2.97;1.80;;;;;;;;;;4988707;28;20029;-74
2022/01/01 08:06:34;;;;;;;3.00;1.48;;;;;;;;;;4990462;28;20448;-74
2022/01/01 08:09:00;;;;;;;2.70;1.48;;;;;;;;;;4989505;28;20429;-75
2022/01/01 08:11:25;;;;;;;1.58;1.20;;;;;;;;;;4971199;28;20452;-74
2022/01/01 08:13:52;;;;;;;2.60;1.50;;;;;;;;;;4989666;28;20120;-74
2022/01/01 08:16:17;;;;;;;3.53;1.83;;;;;;;;;;4989019;28;20487;-74
2022/01/01 08:18:42;;;;;;;3.08;1.90;;;;;;;;;;4988715;28;20442;-74
2022/01/01 08:21:08;;;;;;;2.25;1.48;;;;;;;;;;4989353;28;20047;-74
2022/01/01 08:23:33;;;;;;;2.03;1.42;;;;;;;;;;4989369;28;20406;-74
2022/01/01 08:26:00;;;;;;;2.25;1.45;;;;;;;;;;4989068;28;20313;-74
2022/01/01 08:28:25;;;;;;;2.15;1.40;;;;;;;;;;4988449;28;20340;-74
2022/01/01 08:30:50;;;;;;;2.40;1.40;;;;;;;;;;4989168;28;20391;-74
2022/01/01 08:33:16;;;;;;;3.38;1.50;;;;;;;;;;4970986;28;20063;-74
2022/01/01 08:35:41;;;;;;;3.83;1.60;;;;;;;;;;4990110;28;20463;-74
2022/01/01 08:38:06;;;;;;;2.72;1.38;;;;;;;;;;4989692;28;20040;-74
2022/01/01 08:40:33;;;;;;;2.20;1.30;;;;;;;;;;4988758;28;20486;-74
2022/01/01 08:42:58;;;;;;;2.28;1.33;;;;;;;;;;4988188;28;20451;-74
2022/01/01 08:45:24;;;;;;;3.45;1.33;;;;;;;;;;4989819;28;20396;-74
2022/01/01 08:47:50;;;;;;;4.30;2.15;;;;;;;;;;4988263;28;20056;-74
2022/01/01 08:50:15;;;;;;;4.50;1.90;;;;;;;;;;4970979;28;20304;-74
2022/01/01 08:52:40;;;;;;;4.63;1.58;;;;;;;;;;4988677;28;20464;-74
2022/01/01 08:55:07;;;;;;;1.50;1.20;;;;;;;;;;4988306;28;20351;-73
2022/01/01 08:57:32;;;;;;;3.35;1.52;;;;;;;;;;4989214;28;20102;-74
2022/01/01 08:59:59;;;;;;;3.00;1.92;;;;;;;;;;4992550;28;20448;-74
2022/01/01 09:02:25;;;;;;;2.47;1.40;;;;;;;;;;4992222;28;20422;-75
2022/01/01 09:04:50;;;;;;;1.88;1.20;;;;;;;;;;4974390;28;20403;-74
2022/01/01 09:07:15;;;;;;;2.85;1.70;;;;;;;;;;4974480;28;20313;-77
2022/01/01 09:09:41;;;;;;;2.95;1.70;;;;;;;;;;4992391;28;20340;-74
2022/01/01 09:12:07;;;;;;;2.72;1.48;;;;;;;;;;4974179;28;20340;-74
2022/01/01 09:14:33;;;;;;;2.05;1.35;;;;;;;;;;4991723;28;20455;-74
2022/01/01 09:16:58;;;;;;;2.55;1.50;;;;;;;;;;4973959;28;20381;-75
2022/01/01 09:19:23;;;;;;;2.83;1.33;;;;;;;;;;4992170;28;20507;-74
2022/01/01 09:21:49;;;;;;;3.13;1.67;;;;;;;;;;4992098;28;20457;-75
2022/01/01 09:24:14;;;;;;;2.17;1.30;;;;;;;;;;4993610;28;20115;-74
2022/01/01 09:26:39;;;;;;;2.80;1.58;;;;;;;;;;4991864;28;20314;-75
2022/01/01 09:29:06;;;;;;;3.50;1.40;;;;;;;;;;4991741;28;20343;-74
2022/01/01 09:31:32;;;;;;;4.05;1.67;;;;;;;;;;4991623;28;20409;-74
2022/01/01 09:33:58;;;;;;;2.70;1.60;;;;;;;;;;4992064;28;20447;-73
2022/01/01 09:36:23;;;;;;;2.22;1.45;;;;;;;;;;4973525;28;20159;-74
2022/01/01 09:38:48;;;;;;;2.63;1.33;;;;;;;;;;4973677;28;20471;-74
2022/01/01 09:41:15;;;;;;;2.22;1.50;;;;;;;;;;4991326;28;20383;-74
2022/01/01 09:43:41;;;;;;;2.35;1.52;;;;;;;;;;4974177;28;20327;-74
2022/01/01 09:46:07;;;;;;;2.97;1.35;;;;;;;;;;4991337;28;20029;-74
2022/01/01 09:48:32;;;;;;;2.10;1.50;;;;;;;;;;4973591;28;20055;-74
2022/01/01 09:51:00;;;;;;;1.77;1.27;;;;;;;;;;4992544;28;20424;-74
2022/01/01 09:53:27;;;;;;;3.45;1.67;;;;;;;;;;4991316;28;20487;-74
2022/01/01 09:55:53;;;;;;;2.58;1.27;;;;;;;;;;4973379;28;20455;-74
2022/01/01 09:58:28;;;;;;;3.50;1.60;;;;;;;;;;4991458;28;20033;-75
2022/01/01 10:00:54;;;;;;;2.60;1.85;;;;;;;;;;4973353;28;20094;-75
2022/01/01 10:03:32;;;;;;;4.05;1.75;;;;;;;;;;4991598;28;20037;-75
2022/01/01 10:06:04;;;;;;;2.78;1.58;;;;;;;;;;4991102;28;20420;-74
2022/01/01 10:08:30;;;;;;;2.97;1.60;;;;;;;;;;4990633;28;20486;-74
2022/01/01 10:10:56;;;;;;;3.03;1.70;;;;;;;;;;4991154;28;20370;-74
2022/01/01 10:13:33;;;;;;;2.45;1.40;;;;;;;;;;4973423;28;20387;-74
2022/01/01 10:16:01;;;;;;;2.50;1.38;;;;;;;;;;4972809;28;20339;-74
2022/01/01 10:18:31;;;;;;;2.42;1.40;;;;;;;;;;4972798;28;20072;-75
2022/01/01 10:21:05;;;;;;;2.65;1.55;;;;;;;;;;4990532;28;20143;-74
2022/01/01 10:23:33;;;;;;;2.30;1.90;;;;;;;;;;4972979;28;20452;-74
2022/01/01 10:28:56;;;;;;;3.38;1.63;;;;;;;;;;4990966;28;20344;-73
2022/01/01 10:31:21;;;;;;;3.15;1.50;;;;;;;;;;4972417;28;20329;-74
2022/01/01 10:33:47;;;;;;;3.33;1.55;;;;;;;;;;4990293;28;20159;-73
2022/01/01 10:36:13;;;;;;;2.47;1.98;;;;;;;;;;4990816;28;20456;-73
2022/01/01 10:38:39;;;;;;;3.47;1.92;;;;;;;;;;4990496;28;20059;-74
2022/01/01 10:41:06;;;;;;;3.00;1.60;;;;;;;;;;4991997;28;20029;-74
2022/01/01 10:43:40;;;;;;;3.03;1.52;;;;;;;;;;4991054;28;20404;-75
2022/01/01 10:46:06;;;;;;;4.63;1.67;;;;;;;;;;4971926;28;20414;-74
2022/01/01 10:51:04;;;;;;;4.53;1.95;;;;;;;;;;4990079;28;20408;-74
2022/01/01 10:53:29;;;;;;;2.97;1.80;;;;;;;;;;4990532;28;20341;-73
2022/01/01 10:55:58;;;;;;;3.67;1.92;;;;;;;;;;4989911;28;20375;-74
2022/01/01 10:58:35;;;;;;;2.57;1.50;;;;;;;;;;4990278;28;20025;-74
2022/01/01 11:01:07;;;;;;;3.13;1.70;;;;;;;;;;4989977;28;20028;-74
2022/01/01 11:03:37;;;;;;;2.63;1.67;;;;;;;;;;4990083;28;20490;-73
2022/01/01 11:06:08;;;;;;;2.67;2.13;;;;;;;;;;4989659;28;20053;-73
2022/01/01 11:08:34;;;;;;;5.28;2.10;;;;;;;;;;4990147;28;20450;-74
2022/01/01 11:11:02;;;;;;;2.55;1.75;;;;;;;;;;4989788;28;20025;-74
2022/01/01 11:13:27;;;;;;;3.00;1.60;;;;;;;;;;4991014;28;20051;-74
2022/01/01 11:15:53;;;;;;;3.95;1.80;;;;;;;;;;4990222;28;20464;-73
2022/01/01 11:18:18;;;;;;;4.80;2.08;;;;;;;;;;4971735;28;20384;-74
2022/01/01 11:20:44;;;;;;;3.50;1.83;;;;;;;;;;4972705;28;20512;-73
2022/01/01 11:23:11;;;;;;;2.40;1.42;;;;;;;;;;4989799;28;20415;-74
2022/01/01 11:25:38;;;;;;;4.53;2.10;;;;;;;;;;4989263;28;20322;-75
2022/01/01 11:28:07;;;;;;;1.98;1.50;;;;;;;;;;4971753;28;20401;-74
2022/01/01 11:30:35;;;;;;;2.80;1.55;;;;;;;;;;4989745;28;20347;-74
2022/01/01 11:33:12;;;;;;;2.78;1.60;;;;;;;;;;4956350;28;20328;-74
2022/01/01 11:35:41;;;;;;;3.42;1.92;;;;;;;;;;4973003;28;20406;-74
2022/01/01 11:38:08;;;;;;;4.20;2.05;;;;;;;;;;4971889;28;20404;-74
2022/01/01 11:40:58;;;;;;;3.15;1.52;;;;;;;;;;4971524;28;20440;-74
2022/01/01 11:43:38;;;;;;;;;;;;;;;;;;4990199;28;20329;-74
2022/01/01 11:46:06;;;;;;;3.60;1.80;;;;;;;;;;4989373;28;19956;-74
2022/01/01 11:48:45;;;;;;;3.20;1.60;;;;;;;;;;4971777;28;20387;-73
2022/01/01 11:51:36;;;;;;;2.70;1.67;;;;;;;;;;4989089;28;20501;-74
2022/01/01 11:54:20;;;;;;;2.72;1.58;;;;;;;;;;4989006;28;20702;-74
2022/01/01 11:56:51;;;;;;;2.60;1.33;;;;;;;;;;4988753;28;20391;-74
2022/01/01 11:59:21;;;;;;;3.95;2.10;;;;;;;;;;4989221;28;20452;-74
2022/01/01 12:01:47;;;;;;;2.97;1.70;;;;;;;;;;4988760;28;20033;-74
2022/01/01 12:04:27;;;;;;;3.75;1.80;;;;;;;;;;4989092;28;20056;-74
2022/01/01 12:07:09;;;;;;;2.70;1.77;;;;;;;;;;4989574;28;20450;-74
2022/01/01 12:10:01;;;;;;;2.25;1.50;;;;;;;;;;4971217;28;20037;-74
2022/01/01 12:12:37;;;;;;;2.42;1.75;;;;;;;;;;4980230;28;20337;-73
2022/01/01 12:15:07;;;;;;;3.63;2.28;;;;;;;;;;4989242;28;20414;-74
2022/01/01 12:17:45;;;;;;;2.70;1.70;;;;;;;;;;4988704;28;20340;-74
2022/01/01 12:20:14;;;;;;;3.72;1.77;;;;;;;;;;4989179;28;20052;-74
2022/01/01 12:22:43;;;;;;;3.58;1.88;;;;;;;;;;4989106;28;20448;-73
2022/01/01 12:25:08;;;;;;;2.83;1.60;;;;;;;;;;4988756;28;20083;-74
2022/01/01 12:27:47;;;;;;;3.45;1.90;;;;;;;;;;4988941;28;20271;-74
2022/01/01 12:30:17;;;;;;;4.55;2.13;;;;;;;;;;4990316;28;20467;-74
2022/01/01 12:32:47;;;;;;;3.40;1.83;;;;;;;;;;4986942;28;20423;-74
2022/01/01 12:35:16;;;;;;;4.32;2.38;;;;;;;;;;4992789;28;20344;-74
2022/01/01 12:37:42;;;;;;;3.35;1.98;;;;;;;;;;4992326;28;20557;-75
2022/01/01 12:40:09;;;;;;;6.00;1.73;;;;;;;;;;4993049;28;20111;-75
2022/01/01 12:42:35;;;;;;;4.10;2.15;;;;;;;;;;4958571;28;20025;-74
2022/01/01 12:45:05;;;;;;;3.28;1.67;;;;;;;;;;4994768;28;20033;-74
2022/01/01 12:47:31;;;;;;;3.28;1.92;;;;;;;;;;4992518;28;20384;-74
2022/01/01 12:49:58;;;;;;;4.25;2.20;;;;;;;;;;4992586;28;20331;-74
2022/01/01 12:52:23;;;;;;;3.15;2.17;;;;;;;;;;4992453;28;20052;-74
2022/01/01 12:54:52;;;;;;;6.03;2.17;;;;;;;;;;4991925;28;20449;-74
2022/01/01 12:57:18;;;;;;;4.10;2.20;;;;;;;;;;4992482;28;20444;-74
2022/01/01 12:59:45;;;;;;;4.72;2.15;;;;;;;;;;4974494;28;20374;-74
2022/01/01 13:02:10;;;;;;;4.97;2.28;;;;;;;;;;4993288;28;20028;-74
2022/01/01 13:04:36;;;;;;;4.45;2.50;;;;;;;;;;4993072;28;20471;-74
2022/01/01 13:07:03;;;;;;;2.65;1.85;;;;;;;;;;4991892;28;20448;-74
2022/01/01 13:09:29;;;;;;;4.07;2.05;;;;;;;;;;4974441;28;20037;-74
2022/01/01 13:11:59;;;;;;;5.78;2.63;;;;;;;;;;4991662;28;20466;-74
2022/01/01 13:14:29;;;;;;;4.85;2.20;;;;;;;;;;4992107;28;20457;-74
2022/01/01 13:16:55;;;;;;;5.03;2.40;;;;;;;;;;4973904;28;20351;-74
2022/01/01 13:19:20;;;;;;;4.95;2.70;;;;;;;;;;4992000;28;20447;-74
2022/01/01 13:21:46;;;;;;;7.60;2.78;;;;;;;;;;4974498;28;20420;-74
2022/01/01 13:24:12;;;;;;;4.65;2.55;;;;;;;;;;4974171;28;20439;-74
2022/01/01 13:26:38;;;;;;;4.30;2.13;;;;;;;;;;4993333;28;20427;-74
2022/01/01 13:29:04;;;;;;;4.97;2.75;;;;;;;;;;4974112;28;20424;-74
2022/01/01 13:31:30;;;;;;;13.77;5.00;;;;;;;;;;4973977;28;20328;-75
2022/01/01 13:33:57;;;;;;;4.82;2.63;;;;;;;;;;4991583;28;20379;-75
2022/01/01 13:36:43;;;;;;;14.20;5.68;;;;;;;;;;4992823;28;20391;-74
2022/01/01 13:39:11;;;;;;;9.05;3.72;;;;;;;;;;4991526;28;20451;-74
2022/01/01 13:41:40;;;;;;;7.13;3.47;;;;;;;;;;4973108;28;20328;-74
2022/01/01 13:44:26;;;;;;;9.85;4.28;;;;;;;;;;4990752;28;20497;-75
2022/01/01 13:47:04;;;;;;;6.88;3.53;;;;;;;;;;4990992;28;20444;-74
2022/01/01 13:49:55;;;;;;;11.68;4.40;;;;;;;;;;5000452;28;20356;-73
2022/01/01 13:52:25;;;;;;;7.65;3.67;;;;;;;;;;5001253;28;20608;-74
2022/01/01 13:54:56;;;;;;;8.93;3.50;;;;;;;;;;4978162;28;20329;-74
2022/01/01 13:57:21;;;;;;;11.25;4.10;;;;;;;;;;4973441;28;20094;-74
2022/01/01 13:59:53;;;;;;;11.63;4.05;;;;;;;;;;4989664;28;20428;-74
2022/01/01 14:02:21;;;;;;;8.43;3.70;;;;;;;;;;4991592;28;20420;-74
2022/01/01 14:04:47;;;;;;;8.60;4.25;;;;;;;;;;4990056;28;20443;-74
2022/01/01 14:07:17;;;;;;;16.30;4.72;;;;;;;;;;4991163;28;20468;-75
2022/01/01 14:10:07;;;;;;;9.75;4.05;;;;;;;;;;4973686;28;20521;-74
2022/01/01 14:12:34;;;;;;;13.15;4.72;;;;;;;;;;4989257;28;20448;-74
2022/01/01 14:15:07;;;;;;;9.27;4.65;;;;;;;;;;4990860;28;20340;-74
2022/01/01 14:17:58;;;;;;;9.40;4.25;;;;;;;;;;4991052;28;20372;-74
2022/01/01 14:20:36;;;;;;;7.78;4.15;;;;;;;;;;4989918;28;20410;-74
2022/01/01 14:23:04;;;;;;;11.13;4.88;;;;;;;;;;4990659;28;20443;-74
2022/01/01 14:25:32;;;;;;;9.95;4.45;;;;;;;;;;4990924;28;20051;-74
2022/01/01 14:28:01;;;;;;;10.23;4.35;;;;;;;;;;4990745;28;20332;-74
2022/01/01 14:30:27;;;;;;;11.02;4.45;;;;;;;;;;4989600;28;20075;-74
2022/01/01 14:32:53;;;;;;;13.75;4.80;;;;;;;;;;4990594;28;20417;-74
2022/01/01 14:35:20;;;;;;;9.02;3.92;;;;;;;;;;4973245;28;20471;-74
2022/01/01 14:37:45;;;;;;;13.07;4.40;;;;;;;;;;4990580;28;20337;-74
2022/01/01 14:40:10;;;;;;;13.75;4.10;;;;;;;;;;4988912;28;20029;-74
2022/01/01 14:42:36;;;;;;;9.98;4.40;;;;;;;;;;4990326;28;20392;-74
2022/01/01 14:45:01;;;;;;;8.43;3.70;;;;;;;;;;4990575;28;20061;-74
2022/01/01 14:47:31;;;;;;;8.18;3.85;;;;;;;;;;4989051;28;20468;-73